KGFL/GFL METAR and TAF weather

Enter ICAO airport designator
Station Type Date Time Source
KGFL METAR 2020/12/05 04:53 UTC NOAA

KGFL 050453Z AUTO 00000KT 10SM OVC070 03/01 A2988 RMK AO2 SLP126 T00280011 400781033


Station Type Date Time Source
KGFL Decoded METAR 2020/12/05 04:53 UTC NOAA

FLOYD BENNETT MEMORIAL AIRPORT , NY, United States (KGFL) 43-20N 073-37W 103M
Dec 04, 2020 - 11:53 PM EST / 2020.12.05 0453 UTC
Wind: Calm:0
Visibility: 10 mile(s):0
Sky conditions: overcast
Temperature: 37.0 F (2.8 C)
Dew Point: 34.0 F (1.1 C)
Relative Humidity: 88%
Pressure (altimeter): 29.88 in. Hg (1011 hPa)
ob: KGFL 050453Z AUTO 00000KT 10SM OVC070 03/01 A2988 RMK AO2 SLP126 T00280011 400781033
cycle: 5

Station Type Date Time Source
KGFL TAF 2020/12/05 03:12 UTC NOAA

TAF
AMD KGFL 050309Z 0503/0524 VRB03KT P6SM OVC070
FM050600 03004KT P6SM VCSH SCT015 OVC035
FM051300 01009KT P6SM VCSH BKN015 OVC025
FM051700 02012G20KT P6SM VCSH OVC020 PROB30 0517/0521 5SM -RASN BR BKN012
FM052100 34016G25KT P6SM VCSH SCT012 OVC030

Example: see airport list